createdAt,value
2019-03-23T00:00:22.748Z,8.33
2019-03-23T00:03:10.418Z,8.37
2019-03-23T00:05:43.910Z,8.30
2019-03-23T00:08:18.010Z,8.26
2019-03-23T00:10:51.784Z,8.23
2019-03-23T00:13:25.478Z,8.15
2019-03-23T00:16:10.084Z,8.09
2019-03-23T00:18:44.320Z,8.10
2019-03-23T00:21:27.731Z,8.15
2019-03-23T00:24:03.110Z,7.97
2019-03-23T00:26:40.692Z,8.05
2019-03-23T00:29:14.388Z,7.97
2019-03-23T00:31:50.416Z,7.94
2019-03-23T00:34:25.307Z,7.96
2019-03-23T00:37:15.377Z,7.96
2019-03-23T00:40:00.330Z,8.11
2019-03-23T00:42:33.633Z,8.06
2019-03-23T00:45:11.240Z,8.11
2019-03-23T00:47:49.593Z,7.96
2019-03-23T00:50:25.471Z,7.96
2019-03-23T00:53:04.325Z,7.84
2019-03-23T00:55:49.418Z,7.96
2019-03-23T00:58:28.475Z,7.89
2019-03-23T01:01:02.237Z,7.81
2019-03-23T01:03:35.935Z,7.72
2019-03-23T01:06:18.742Z,7.77
2019-03-23T01:09:09.636Z,7.77
2019-03-23T01:12:00.658Z,7.72
2019-03-23T01:14:46.450Z,7.77
2019-03-23T01:17:21.583Z,7.64
2019-03-23T01:19:56.374Z,7.57
2019-03-23T01:22:31.038Z,7.56
2019-03-23T01:25:05.616Z,7.53
2019-03-23T01:27:39.682Z,7.66
2019-03-23T01:30:22.142Z,7.67
2019-03-23T01:32:56.242Z,7.57
2019-03-23T01:35:41.812Z,7.64
2019-03-23T01:38:15.509Z,7.55
2019-03-23T01:40:49.596Z,7.56
2019-03-23T01:43:23.643Z,7.77
2019-03-23T01:46:14.819Z,7.94
2019-03-23T01:48:48.828Z,7.97
2019-03-23T01:51:22.584Z,8.07
2019-03-23T01:53:59.936Z,8.33
2019-03-23T01:56:48.636Z,8.52
2019-03-23T01:59:22.286Z,8.48
2019-03-23T02:01:56.064Z,8.50
2019-03-23T02:04:48.030Z,8.53
2019-03-23T02:07:22.535Z,8.52
2019-03-23T02:09:56.586Z,8.45
2019-03-23T02:12:30.555Z,8.41
2019-03-23T02:15:06.424Z,8.38
2019-03-23T02:17:55.566Z,8.46
2019-03-23T02:20:38.115Z,8.48
2019-03-23T02:23:23.708Z,8.33
2019-03-23T02:26:07.325Z,8.31
2019-03-23T02:28:41.212Z,8.22
2019-03-23T02:31:15.268Z,8.17
2019-03-23T02:34:06.645Z,8.02
2019-03-23T02:36:46.870Z,7.83
2019-03-23T02:39:21.939Z,7.86
2019-03-23T02:41:56.645Z,7.76
2019-03-23T02:44:48.033Z,8.00
2019-03-23T02:47:22.012Z,8.03
2019-03-23T02:49:55.725Z,8.05
2019-03-23T02:52:30.253Z,7.86
2019-03-23T02:55:18.960Z,7.83
2019-03-23T02:57:52.784Z,7.82
2019-03-23T03:00:43.891Z,7.87
2019-03-23T03:03:18.014Z,7.86
2019-03-23T03:06:02.839Z,7.74
2019-03-23T03:08:47.831Z,7.69
2019-03-23T03:11:23.298Z,7.59
2019-03-23T03:13:57.409Z,7.59
2019-03-23T03:16:46.951Z,7.63
2019-03-23T03:19:20.718Z,7.59
2019-03-23T03:21:55.680Z,7.50
2019-03-23T03:24:29.967Z,7.49
2019-03-23T03:27:22.858Z,7.34
2019-03-23T03:29:57.378Z,7.25
2019-03-23T03:32:55.114Z,7.14
2019-03-23T03:35:29.510Z,7.01
2019-03-23T03:38:03.922Z,7.03
2019-03-23T03:40:38.112Z,7.04
2019-03-23T03:43:21.560Z,7.21
2019-03-23T03:45:56.267Z,7.15
2019-03-23T03:48:41.748Z,7.18
2019-03-23T03:51:15.865Z,7.12
2019-03-23T03:53:59.677Z,7.27
2019-03-23T03:56:33.444Z,7.26
2019-03-23T03:59:07.799Z,7.03
2019-03-23T04:01:51.536Z,7.06
2019-03-23T04:04:25.576Z,6.96
2019-03-23T04:07:10.489Z,6.97
2019-03-23T04:09:54.568Z,7.01
2019-03-23T04:12:28.816Z,7.07
2019-03-23T04:15:14.287Z,7.15
2019-03-23T04:17:57.960Z,7.17
2019-03-23T04:20:32.217Z,7.16
2019-03-23T04:23:15.753Z,7.18
2019-03-23T04:25:49.731Z,7.03
2019-03-23T04:28:23.828Z,6.95
2019-03-23T04:31:06.356Z,7.00
2019-03-23T04:33:40.824Z,6.98
2019-03-23T04:36:16.012Z,7.06
2019-03-23T04:38:50.393Z,7.14
2019-03-23T04:41:35.860Z,7.18
2019-03-23T04:44:21.864Z,7.21
2019-03-23T04:46:56.047Z,7.25
2019-03-23T04:49:30.895Z,7.31
2019-03-23T04:52:05.658Z,7.28
2019-03-23T04:54:39.353Z,7.19
2019-03-23T04:57:13.463Z,7.17
2019-03-23T04:59:47.477Z,7.20
2019-03-23T05:02:21.492Z,7.27
2019-03-23T05:05:12.513Z,7.31
2019-03-23T05:07:56.522Z,7.41
2019-03-23T05:10:30.946Z,7.30
2019-03-23T05:13:15.671Z,7.31
2019-03-23T05:16:01.169Z,7.12
2019-03-23T05:18:51.593Z,7.17
2019-03-23T05:21:25.971Z,7.22
2019-03-23T05:24:08.696Z,7.19
2019-03-23T05:26:43.433Z,7.20
2019-03-23T05:29:17.814Z,7.24
2019-03-23T05:32:00.669Z,7.31
2019-03-23T05:34:33.657Z,7.35
2019-03-23T05:37:07.769Z,7.33
2019-03-23T05:40:01.010Z,7.41
2019-03-23T05:42:44.266Z,7.42
2019-03-23T05:45:18.085Z,7.43
2019-03-23T05:47:53.003Z,7.44
2019-03-23T05:50:34.070Z,7.54
2019-03-23T05:53:22.614Z,7.63
2019-03-23T05:55:58.658Z,7.53
2019-03-23T05:58:33.139Z,7.55
2019-03-23T06:01:16.232Z,7.56
2019-03-23T06:04:04.693Z,7.56
2019-03-23T06:06:39.091Z,7.56
2019-03-23T06:09:43.145Z,7.54
2019-03-23T06:12:26.126Z,7.38
2019-03-23T06:15:08.691Z,7.38
2019-03-23T06:17:51.818Z,7.29
2019-03-23T06:20:38.936Z,7.27
2019-03-23T06:23:13.304Z,7.17
2019-03-23T06:25:47.181Z,7.18
2019-03-23T06:28:31.871Z,7.28
2019-03-23T06:31:05.880Z,7.28
2019-03-23T06:33:39.932Z,7.29
2019-03-23T06:36:22.492Z,7.42
2019-03-23T06:39:15.639Z,7.44
2019-03-23T06:41:49.780Z,7.43
2019-03-23T06:44:33.182Z,7.53
2019-03-23T06:47:07.609Z,7.44
2019-03-23T06:50:03.368Z,7.54
2019-03-23T06:52:37.118Z,7.39
2019-03-23T06:55:17.314Z,7.40
2019-03-23T06:57:51.765Z,7.49
2019-03-23T07:00:34.415Z,7.59
2019-03-23T07:03:27.958Z,7.67
2019-03-23T07:06:04.963Z,7.60
2019-03-23T07:08:40.095Z,7.66
2019-03-23T07:11:14.414Z,7.61
2019-03-23T07:13:52.894Z,7.62
2019-03-23T07:16:43.232Z,7.61
2019-03-23T07:19:22.847Z,7.59
2019-03-23T07:22:08.347Z,7.75
2019-03-23T07:24:53.360Z,7.82
2019-03-23T07:27:31.729Z,7.85
2019-03-23T07:30:07.346Z,7.99
2019-03-23T07:32:52.987Z,8.08
2019-03-23T07:35:29.144Z,8.06
2019-03-23T07:38:16.593Z,7.90
2019-03-23T07:40:59.132Z,7.88
2019-03-23T07:43:50.192Z,7.88
2019-03-23T07:46:34.883Z,7.91
2019-03-23T07:49:08.631Z,7.90
2019-03-23T07:51:52.723Z,7.91
2019-03-23T07:54:42.463Z,7.98
2019-03-23T07:57:17.424Z,7.89
2019-03-23T08:00:17.686Z,7.99
2019-03-23T08:03:17.255Z,8.04
2019-03-23T08:06:00.188Z,8.03
2019-03-23T08:08:56.534Z,8.23
2019-03-23T08:11:41.460Z,8.23
2019-03-23T08:14:45.230Z,8.34
2019-03-23T08:17:24.204Z,8.42
2019-03-23T08:20:01.007Z,8.46
2019-03-23T08:22:38.500Z,8.33
2019-03-23T08:25:38.115Z,8.33
2019-03-23T08:28:23.225Z,8.46
2019-03-23T08:30:59.579Z,8.59
2019-03-23T08:33:35.599Z,8.63
2019-03-23T08:36:19.841Z,8.81
2019-03-23T08:39:24.424Z,8.85
2019-03-23T08:45:22.050Z,8.78
2019-03-23T08:47:56.639Z,8.75
2019-03-23T08:51:05.479Z,8.21
2019-03-23T09:00:45.609Z,8.88
2019-03-23T09:03:31.680Z,8.99
2019-03-23T09:06:06.001Z,9.22
2019-03-23T09:08:49.607Z,9.35
2019-03-23T09:11:24.668Z,9.25
2019-03-23T09:14:00.865Z,9.28
2019-03-23T09:16:48.405Z,9.35
2019-03-23T09:19:23.211Z,9.33
2019-03-23T09:22:01.807Z,9.30
2019-03-23T09:24:39.042Z,9.25
2019-03-23T09:27:15.581Z,9.24
2019-03-23T09:29:49.599Z,9.25
2019-03-23T09:32:25.792Z,9.18
2019-03-23T09:34:59.908Z,9.29
2019-03-23T09:37:38.279Z,9.50
2019-03-23T09:40:11.775Z,9.56
2019-03-23T09:42:47.932Z,9.54
2019-03-23T09:45:32.557Z,9.54
2019-03-23T09:48:10.208Z,9.67
2019-03-23T09:50:46.641Z,9.84
2019-03-23T09:53:20.782Z,9.70
2019-03-23T09:55:57.169Z,9.61
2019-03-23T09:58:32.273Z,9.71
2019-03-23T10:01:06.303Z,9.90
2019-03-23T10:04:02.289Z,10.12
2019-03-23T10:06:36.176Z,10.20
2019-03-23T10:09:09.850Z,10.32
2019-03-23T10:12:13.633Z,10.34
2019-03-23T10:14:46.715Z,10.38
2019-03-23T10:17:21.475Z,10.31
2019-03-23T10:19:55.317Z,10.41
2019-03-23T10:22:38.325Z,10.51
2019-03-23T10:25:12.447Z,10.09
2019-03-23T10:27:48.870Z,10.21
2019-03-23T10:30:26.262Z,10.34
2019-03-23T10:33:08.273Z,10.51
2019-03-23T10:35:51.266Z,10.56
2019-03-23T10:38:33.917Z,10.61
2019-03-23T10:41:23.224Z,10.62
2019-03-23T10:44:01.306Z,10.74
2019-03-23T10:46:35.055Z,10.93
2019-03-23T10:49:11.741Z,10.90
2019-03-23T10:51:49.202Z,10.69
2019-03-23T10:54:27.713Z,10.59
2019-03-23T10:57:03.784Z,10.76
2019-03-23T10:59:37.844Z,10.81
2019-03-23T11:02:13.092Z,10.93
2019-03-23T11:04:53.847Z,11.00
2019-03-23T11:07:27.625Z,10.88
2019-03-23T11:10:07.871Z,10.95
2019-03-23T11:12:51.853Z,11.05
2019-03-23T11:15:35.748Z,11.16
2019-03-23T11:18:09.647Z,11.28
2019-03-23T11:20:46.578Z,11.22
2019-03-23T11:23:56.483Z,11.22
2019-03-23T11:26:40.529Z,11.19
2019-03-23T11:29:22.165Z,10.96
2019-03-23T11:31:56.609Z,10.82
2019-03-23T11:34:41.826Z,10.87
2019-03-23T11:37:15.925Z,10.84
2019-03-23T11:39:50.768Z,10.83
2019-03-23T11:42:24.500Z,10.81
2019-03-23T11:44:58.289Z,10.91
2019-03-23T11:47:33.917Z,11.03
2019-03-23T11:50:16.637Z,11.02
2019-03-23T11:52:51.817Z,11.09
2019-03-23T11:55:25.888Z,11.08
2019-03-23T11:58:17.415Z,11.06
2019-03-23T12:00:51.505Z,11.09
2019-03-23T12:03:24.472Z,10.97
2019-03-23T12:05:59.335Z,10.99
2019-03-23T12:08:34.835Z,11.05
2019-03-23T12:11:08.880Z,11.07
2019-03-23T12:13:42.681Z,11.26
2019-03-23T12:16:28.828Z,11.27
2019-03-23T12:19:17.923Z,11.37
2019-03-23T12:22:01.337Z,11.41
2019-03-23T12:24:47.123Z,11.55
2019-03-23T12:27:32.133Z,11.49
2019-03-23T12:30:13.116Z,11.40
2019-03-23T12:33:01.938Z,11.56
2019-03-23T12:35:53.232Z,11.59
2019-03-23T12:38:38.913Z,11.50
2019-03-23T12:41:23.242Z,11.48
2019-03-23T12:44:06.314Z,11.46
2019-03-23T12:46:48.808Z,11.32
2019-03-23T12:49:32.147Z,11.24
2019-03-23T12:52:14.884Z,11.29
2019-03-23T12:54:48.904Z,11.26
2019-03-23T12:57:22.891Z,11.05
2019-03-23T12:59:58.708Z,11.06
2019-03-23T13:02:47.830Z,11.10
2019-03-23T13:05:38.049Z,11.06
2019-03-23T13:08:20.501Z,10.98
2019-03-23T13:10:54.173Z,10.82
2019-03-23T13:13:29.598Z,10.85
2019-03-23T13:16:05.270Z,10.73
2019-03-23T13:18:40.751Z,10.76
2019-03-23T13:21:14.761Z,10.72
2019-03-23T13:23:48.785Z,10.67
2019-03-23T13:26:35.174Z,10.65
2019-03-23T13:29:09.709Z,10.39
2019-03-23T13:31:55.492Z,10.32
2019-03-23T13:34:29.317Z,10.17
2019-03-23T13:37:02.784Z,10.13
2019-03-23T13:39:36.736Z,10.07
2019-03-23T13:42:22.289Z,10.05
2019-03-23T13:44:57.347Z,9.98
2019-03-23T13:47:31.378Z,10.06
2019-03-23T13:50:25.126Z,9.98
2019-03-23T13:52:59.744Z,9.90
2019-03-23T13:55:34.956Z,9.91
2019-03-23T13:58:15.437Z,9.98
2019-03-23T14:00:49.550Z,10.03
2019-03-23T14:03:26.417Z,10.09
2019-03-23T14:06:01.552Z,10.13
2019-03-23T14:08:48.326Z,10.16
2019-03-23T14:11:22.498Z,10.09
2019-03-23T14:14:11.254Z,10.03
2019-03-23T14:16:45.627Z,10.00
2019-03-23T14:19:56.854Z,10.03
2019-03-23T14:22:31.304Z,9.89
2019-03-23T14:25:06.693Z,9.80
2019-03-23T14:27:40.971Z,9.73
2019-03-23T14:30:39.462Z,9.86
2019-03-23T14:33:14.987Z,9.88
2019-03-23T14:36:02.139Z,9.93
2019-03-23T14:38:49.143Z,9.92
2019-03-23T14:41:23.454Z,9.95
2019-03-23T14:43:59.246Z,10.00
2019-03-23T14:46:45.547Z,10.08
2019-03-23T14:59:58.551Z,10.27
2019-03-23T15:02:33.481Z,10.15
2019-03-23T15:05:12.308Z,10.08
2019-03-23T15:07:57.386Z,10.29
2019-03-23T15:10:31.457Z,10.30
2019-03-23T15:13:05.266Z,10.43
2019-03-23T15:15:39.914Z,10.59
2019-03-23T15:18:13.722Z,10.87
2019-03-23T15:20:47.407Z,10.92
2019-03-23T15:23:21.483Z,11.03
2019-03-23T15:26:07.538Z,11.09
2019-03-23T15:28:42.808Z,11.17
2019-03-23T15:31:25.633Z,11.14
2019-03-23T15:34:08.542Z,11.15
2019-03-23T15:36:52.075Z,11.02
2019-03-23T15:39:26.937Z,10.97
2019-03-23T15:42:01.500Z,10.91
2019-03-23T15:44:35.773Z,10.78
2019-03-23T15:47:09.763Z,10.69
2019-03-23T15:49:58.953Z,10.72
2019-03-23T15:52:42.676Z,10.68
2019-03-23T15:55:17.048Z,10.66
2019-03-23T15:57:59.427Z,10.79
2019-03-23T16:00:34.247Z,10.84
2019-03-23T16:03:09.206Z,10.90
2019-03-23T16:05:43.223Z,10.90
2019-03-23T16:08:18.174Z,10.82
2019-03-23T16:10:54.101Z,10.88
2019-03-23T16:13:37.519Z,10.87
2019-03-23T16:16:12.157Z,10.72
2019-03-23T16:18:49.111Z,10.70
2019-03-23T16:21:34.626Z,10.69
2019-03-23T16:24:08.707Z,10.58
2019-03-23T16:26:42.440Z,10.55
2019-03-23T16:29:16.585Z,10.51
2019-03-23T16:32:05.862Z,10.57
2019-03-23T16:34:51.547Z,10.50
2019-03-23T16:37:30.215Z,10.48
2019-03-23T16:40:05.434Z,10.52
2019-03-23T16:42:48.303Z,10.61
2019-03-23T16:45:36.357Z,10.62
2019-03-23T16:48:19.027Z,10.69
2019-03-23T16:51:09.794Z,10.71
2019-03-23T16:53:46.943Z,10.70
2019-03-23T16:56:21.647Z,10.58
2019-03-23T16:58:55.724Z,10.52
2019-03-23T17:01:31.799Z,10.41
2019-03-23T17:04:14.962Z,10.30
2019-03-23T17:06:48.795Z,10.27
2019-03-23T17:09:23.010Z,10.21
2019-03-23T17:12:05.871Z,10.19
2019-03-23T17:14:55.326Z,10.08
2019-03-23T17:17:29.011Z,9.94
2019-03-23T17:20:03.058Z,9.87
2019-03-23T17:22:36.884Z,9.83
2019-03-23T17:25:10.998Z,9.78
2019-03-23T17:27:53.848Z,9.71
2019-03-23T17:30:36.896Z,9.56
2019-03-23T17:33:21.171Z,9.43
2019-03-23T17:36:03.703Z,9.32
2019-03-23T17:38:37.931Z,9.19
2019-03-23T17:41:11.651Z,9.12
2019-03-23T17:43:45.744Z,9.00
2019-03-23T17:46:19.449Z,8.92
2019-03-23T17:48:52.980Z,8.85
2019-03-23T17:51:26.669Z,8.83
2019-03-23T17:54:00.529Z,8.75
2019-03-23T17:56:43.404Z,8.76
2019-03-23T17:59:32.997Z,8.72
2019-03-23T18:02:07.999Z,8.64
2019-03-23T18:04:42.018Z,8.56
2019-03-23T18:07:25.883Z,8.48
2019-03-23T18:10:09.118Z,8.39
2019-03-23T18:12:43.740Z,8.28
2019-03-23T18:15:26.360Z,8.27
2019-03-23T18:18:01.183Z,8.12
2019-03-23T18:20:34.847Z,8.02
2019-03-23T18:23:08.606Z,7.93
2019-03-23T18:25:42.264Z,7.92
2019-03-23T18:28:16.371Z,7.88
2019-03-23T18:30:58.939Z,7.95
2019-03-23T18:33:42.145Z,7.92
2019-03-23T18:36:25.391Z,7.75
2019-03-23T18:39:00.155Z,7.61
2019-03-23T18:41:47.172Z,7.59
2019-03-23T18:44:30.012Z,7.43
2019-03-23T18:47:12.633Z,7.32
2019-03-23T18:49:49.281Z,7.26
2019-03-23T18:52:22.760Z,7.17
2019-03-23T18:54:57.256Z,7.18
2019-03-23T18:57:31.505Z,7.08
2019-03-23T19:00:06.310Z,6.97
2019-03-23T19:02:40.326Z,6.93
2019-03-23T19:05:14.212Z,6.92
2019-03-23T19:08:03.832Z,6.89
2019-03-23T19:10:37.780Z,6.77
2019-03-23T19:13:11.945Z,6.73
2019-03-23T19:15:58.306Z,6.71
2019-03-23T19:18:37.683Z,6.70
2019-03-23T19:21:20.353Z,6.64
2019-03-23T19:23:54.146Z,6.48
2019-03-23T19:26:36.811Z,6.45
2019-03-23T19:29:11.120Z,6.32
2019-03-23T19:31:45.650Z,6.16
2019-03-23T19:34:28.457Z,6.17
2019-03-23T19:37:02.527Z,5.97
2019-03-23T19:39:47.779Z,5.91
2019-03-23T19:42:30.660Z,5.95
2019-03-23T19:45:13.145Z,5.95
2019-03-23T19:47:46.826Z,5.91
2019-03-23T19:50:29.561Z,5.98
2019-03-23T19:53:14.022Z,5.93
2019-03-23T19:55:47.974Z,5.88
2019-03-23T19:58:39.606Z,5.86
2019-03-23T20:01:13.636Z,5.71
2019-03-23T20:03:59.155Z,5.70
2019-03-23T20:06:48.203Z,5.67
2019-03-23T20:09:22.811Z,5.67
2019-03-23T20:12:06.760Z,5.67
2019-03-23T20:14:42.937Z,5.65
2019-03-23T20:17:25.724Z,5.74
2019-03-23T20:20:01.501Z,5.68
2019-03-23T20:22:35.351Z,5.55
2019-03-23T20:25:09.762Z,5.62
2019-03-23T20:27:53.015Z,5.72
2019-03-23T20:30:27.480Z,5.52
2019-03-23T20:33:19.034Z,5.56
2019-03-23T20:36:00.615Z,5.42
2019-03-23T20:38:35.008Z,5.31
2019-03-23T20:41:20.713Z,5.32
2019-03-23T20:44:11.249Z,5.31
2019-03-23T20:46:56.772Z,5.22
2019-03-23T20:49:41.248Z,5.20
2019-03-23T20:52:30.439Z,5.19
2019-03-23T20:55:04.603Z,5.02
2019-03-23T20:57:50.343Z,5.11
2019-03-23T21:00:28.427Z,5.12
2019-03-23T21:03:03.240Z,4.99
2019-03-23T21:05:37.753Z,5.02
2019-03-23T21:08:21.364Z,5.02
2019-03-23T21:10:55.918Z,4.94
2019-03-23T21:13:42.127Z,5.04
2019-03-23T21:16:16.831Z,4.99
2019-03-23T21:18:50.849Z,4.91
2019-03-23T21:21:24.751Z,4.91
2019-03-23T21:23:59.121Z,4.92
2019-03-23T21:26:32.818Z,4.87
2019-03-23T21:29:06.587Z,4.68
2019-03-23T21:31:45.090Z,4.76
2019-03-23T21:34:21.722Z,4.82
2019-03-23T21:36:57.206Z,4.88
2019-03-23T21:39:33.195Z,4.86
2019-03-23T21:42:18.210Z,4.98
2019-03-23T21:44:53.012Z,4.90
2019-03-23T21:47:36.182Z,4.94
2019-03-23T21:50:19.648Z,4.89
2019-03-23T21:53:10.548Z,4.85
2019-03-23T21:55:48.945Z,4.86
2019-03-23T21:58:23.824Z,4.90
2019-03-23T22:01:07.378Z,4.91
2019-03-23T22:03:43.381Z,4.94
2019-03-23T22:06:17.298Z,4.94
2019-03-23T22:08:52.028Z,4.95
2019-03-23T22:11:42.704Z,4.85
2019-03-23T22:14:17.106Z,4.72
2019-03-23T22:17:00.590Z,4.61
2019-03-23T22:19:44.282Z,4.61
2019-03-23T22:22:18.312Z,4.50
2019-03-23T22:24:52.656Z,4.41
2019-03-23T22:27:37.871Z,4.52
2019-03-23T22:30:20.834Z,4.65
2019-03-23T22:33:03.646Z,4.60
2019-03-23T22:35:46.623Z,4.61
2019-03-23T22:38:30.334Z,4.60
2019-03-23T22:41:04.429Z,4.51
2019-03-23T22:43:47.146Z,4.57
2019-03-23T22:46:34.455Z,4.50
2019-03-23T22:49:09.761Z,4.30
2019-03-23T22:51:54.724Z,4.26
2019-03-23T22:54:41.061Z,4.29
2019-03-23T22:57:28.008Z,4.18
2019-03-23T23:00:03.041Z,3.98
2019-03-23T23:02:43.538Z,4.04
2019-03-23T23:05:18.163Z,3.96
2019-03-23T23:07:51.864Z,4.00
2019-03-23T23:10:25.883Z,3.98
2019-03-23T23:13:00.632Z,3.98
2019-03-23T23:15:36.299Z,3.85
2019-03-23T23:18:09.932Z,3.93
2019-03-23T23:20:43.863Z,3.93
2019-03-23T23:23:18.221Z,3.97
2019-03-23T23:28:50.683Z,3.91
2019-03-23T23:31:37.289Z,3.75
2019-03-23T23:34:12.371Z,3.83
2019-03-23T23:37:02.736Z,3.76
2019-03-23T23:39:50.247Z,3.66
2019-03-23T23:42:44.241Z,3.72
2019-03-23T23:45:18.588Z,3.57
2019-03-23T23:47:54.002Z,3.56
2019-03-23T23:50:44.559Z,3.48
2019-03-23T23:53:19.980Z,3.35
2019-03-23T23:55:54.686Z,3.38
2019-03-23T23:58:33.680Z,3.35
